Центральный

Карта отелей и гостиниц, располагающихся рядом с аэропортом Центральный :

Центральный
Омск
Омская область 54° 58' 1.8012" N, 73° 18' 36.9" E
Код аэродрома ИКАО
UNOO
Код аэродрома RU
УНОО
Координаты
N54.96717° E073.31025°
Превышение над уровнем моря
95
Основная полоса
07L/25R
Курс магнитный
065,1/245,1
Длина основной ВПП
2837
Ширина основной ВПП
75
Покрытие основной ВПП
Нетвёрдое (грунт)
Освещение ВПП
Постоянное
Тип: 
Аэродром
Класс аэродрома: 
Международный
Принадлежность: 
ГА
Статус: 
Действующий
Сайт: 
http://www.aeroomsk.ru/
E-mail аэродрома: 
office@aeroomsk.ru
Страна: 
Россия
Регион: 
Омская область
Город: 
Омск
Дополнительная информация: 
Оператор: Открытое акционерное общество "Омский аэропорт". Нкр.=(600)м. PCN: 50/F/C/X/T. Военный индекс: XNOO / ЬНОО.
Погода: 

Авиационная погода в аэропорту Центральный

Регион: 
Погода METAR: 
UNOO 282200Z 23002MPS 9999 BKN033 M03/M04 Q1025 R25/820360 NOSIG RMK QFE761
Время наблюдения
2020-10-28T22:00:00Z
Температура C
-3.0
Точка росы
-4.0
Направление ветра
230
Скорость ветра (узлы)
4
Метео видимость
6.21
Явления погоды
Условия полета
VFR
Аэропорт подробнее: 

Найти трансфер

С помощью этой формы Вы можете найти трансфер из аэропорта Центральный в город, аэропорт или вокзал:

Карта места

Javascript is required to view this map.

Погода в аэропортах:

Авиационная погода в Минске

Регион: 
Погода METAR: 
UMMS 282200Z 16004MPS 3700 BR FEW004 BKN043 11/11 Q1017 R13L/CLRD// R13R/////// NOSIG RMK QBB140
Время наблюдения
2020-10-28T22:00:00Z
Температура C
11.0
Точка росы
11.0
Направление ветра
160
Скорость ветра (узлы)
8
Метео видимость
2.3
Явления погоды
BR
Условия полета
IFR
Аэропорт подробнее: 

Авиационная погода в Бресте

Регион: 
Погода METAR: 
UMBB 281300Z 17003MPS 4700 BR OVC007 12/09 Q1016 R29/290050 NOSIG
Время наблюдения
2020-10-28T13:00:00Z
Температура C
12.0
Точка росы
9.0
Направление ветра
170
Скорость ветра (узлы)
6
Метео видимость
2.92
Явления погоды
BR
Условия полета
IFR
Аэропорт подробнее: 

Авиационная погода в аэропорту Международный

Регион: 
Погода METAR: 
UKLL 282200Z 15001MPS 0800 0650S R13/0800 FG NSC 05/05 Q1016 R13/CLRD// TEMPO 0400 FG
Время наблюдения
2020-10-28T22:00:00Z
Температура C
5.0
Точка росы
5.0
Направление ветра
150
Скорость ветра (узлы)
2
Метео видимость
0.5
Явления погоды
FG
Условия полета
LIFR
Аэропорт подробнее: 

Авиационная погода в аэропорту Алыкель

Регион: 
Погода METAR: 
UOOO 281000Z 09008MPS 9999 DRSN NSC M14/M19 Q1026 R01/39//50 RMK QFE755/1006
Время наблюдения
2020-10-28T10:00:00Z
Температура C
-14.0
Точка росы
-19.0
Направление ветра
90
Скорость ветра (узлы)
16
Метео видимость
6.21
Явления погоды
DRSN
Условия полета
VFR
Аэропорт подробнее: